Time;durP1;ratioP1;P1;durP2;ratioP2;P2;SDS_P1;SDS_P2;PMS_P1;PMS_P2;Temp;Humidity;BMP_temperature;BMP_pressure;BME280_temperature;BME280_humidity;BME280_pressure;Samples;Min_cycle;Max_cycle;Signal;HPM_P1;HPM_P2
2022/06/23 03:02:53;;;;;;;9.75;6.65;;;14.00;99.90;;;;;;6371826;22;20025;-79
2022/06/23 03:05:37;;;;;;;12.27;6.43;;;14.00;99.90;;;;;;6344159;22;20018;-79
2022/06/23 03:08:30;;;;;;;10.82;6.90;;;13.90;99.90;;;;;;6344749;22;20038;-80
2022/06/23 03:11:05;;;;;;;12.35;6.55;;;13.90;99.90;;;;;;6382275;22;20021;-82
2022/06/23 03:13:34;;;;;;;10.98;7.20;;;13.90;99.90;;;;;;6375942;22;20347;-80
2022/06/23 03:16:18;;;;;;;10.82;7.13;;;13.90;99.90;;;;;;6376242;22;20428;-81
2022/06/23 03:19:14;;;;;;;10.73;6.43;;;13.90;99.90;;;;;;6404108;22;20009;-79
2022/06/23 03:21:42;;;;;;;11.52;6.45;;;13.90;99.90;;;;;;6403916;22;20427;-79
2022/06/23 03:24:13;;;;;;;10.55;6.88;;;13.80;99.90;;;;;;6404231;22;20427;-79
2022/06/23 03:26:45;;;;;;;10.80;6.57;;;13.80;99.90;;;;;;6375740;22;20012;-79
2022/06/23 03:29:18;;;;;;;11.95;7.03;;;13.80;99.90;;;;;;6349360;22;20357;-80
2022/06/23 03:32:05;;;;;;;12.02;6.75;;;13.80;99.90;;;;;;6404321;22;20005;-80
2022/06/23 03:34:46;;;;;;;11.88;7.10;;;13.80;99.90;;;;;;6375679;22;20110;-80
2022/06/23 03:37:37;;;;;;;12.57;7.40;;;13.80;99.90;;;;;;6349599;22;20085;-79
2022/06/23 03:43:05;;;;;;;12.68;6.82;;;13.70;99.90;;;;;;6405004;22;20364;-80
2022/06/23 03:46:00;;;;;;;13.18;8.05;;;13.70;99.90;;;;;;6377133;22;20009;-80
2022/06/23 03:48:51;;;;;;;11.02;6.65;;;13.70;99.90;;;;;;6346008;22;20014;-79
2022/06/23 03:51:40;;;;;;;11.65;7.38;;;13.70;99.90;;;;;;6404082;22;20014;-78
2022/06/23 03:54:16;;;;;;;11.40;6.55;;;13.70;99.90;;;;;;6403904;22;20014;-80
2022/06/23 03:56:55;;;;;;;12.45;7.13;;;13.70;99.90;;;;;;6375366;22;20014;-80
2022/06/23 03:59:29;;;;;;;13.30;7.30;;;13.70;99.90;;;;;;6348579;22;20009;-78
2022/06/23 04:02:10;;;;;;;11.15;7.55;;;13.70;99.90;;;;;;6403272;22;20438;-79
2022/06/23 04:05:01;;;;;;;14.63;7.65;;;13.70;99.90;;;;;;6375629;22;20127;-80
2022/06/23 04:07:29;;;;;;;12.50;7.22;;;13.70;99.90;;;;;;6403843;22;20010;-80
2022/06/23 04:10:23;;;;;;;13.32;7.18;;;13.70;99.90;;;;;;6403945;22;20129;-80
2022/06/23 04:12:55;;;;;;;13.60;7.53;;;13.70;99.90;;;;;;6404083;22;20018;-81
2022/06/23 04:15:33;;;;;;;11.90;7.25;;;13.70;99.90;;;;;;6403957;22;20010;-79
2022/06/23 04:18:04;;;;;;;12.43;7.22;;;13.70;99.90;;;;;;6349330;22;20013;-80
2022/06/23 04:20:36;;;;;;;15.32;8.07;;;13.70;99.90;;;;;;6375189;22;20014;-80
2022/06/23 04:23:10;;;;;;;12.05;7.32;;;13.70;99.90;;;;;;6375439;22;20014;-79
2022/06/23 04:25:39;;;;;;;13.87;7.37;;;13.70;99.90;;;;;;6404016;22;20385;-79
2022/06/23 04:28:05;;;;;;;14.23;7.35;;;13.70;99.90;;;;;;6375405;22;20247;-80
2022/06/23 04:30:38;;;;;;;15.10;8.05;;;13.70;99.90;;;;;;6375916;22;20018;-81
2022/06/23 04:33:07;;;;;;;11.85;7.40;;;13.70;99.90;;;;;;6404655;22;20070;-80
2022/06/23 04:35:37;;;;;;;14.15;7.80;;;13.80;99.90;;;;;;6375079;22;20459;-80
2022/06/23 04:38:15;;;;;;;13.23;8.32;;;13.80;99.90;;;;;;6375493;22;20021;-80
2022/06/23 04:40:41;;;;;;;12.52;7.90;;;13.70;99.90;;;;;;6403980;22;20010;-80
2022/06/23 04:43:19;;;;;;;14.90;8.40;;;13.80;99.90;;;;;;6376154;22;20367;-79
2022/06/23 04:46:10;;;;;;;14.90;7.85;;;13.80;99.90;;;;;;6348995;22;20005;-81
2022/06/23 04:48:54;;;;;;;15.13;8.27;;;13.80;99.90;;;;;;6341153;22;20096;-80
2022/06/23 04:51:44;;;;;;;14.57;7.75;;;13.80;99.90;;;;;;6374926;22;20041;-80
2022/06/23 04:54:10;;;;;;;17.02;8.05;;;13.90;99.90;;;;;;6349152;22;20042;-80
2022/06/23 04:57:26;;;;;;;12.80;8.05;;;13.90;99.90;;;;;;6403295;22;20024;-80
2022/06/23 04:59:54;;;;;;;16.35;8.85;;;14.00;99.90;;;;;;6366992;22;20010;-81
2022/06/23 05:02:27;;;;;;;14.43;7.60;;;14.10;99.90;;;;;;6375470;22;20089;-80
2022/06/23 05:04:59;;;;;;;14.73;8.00;;;14.10;99.90;;;;;;6374823;22;20005;-79
2022/06/23 05:07:49;;;;;;;17.60;7.82;;;14.20;99.90;;;;;;6403315;22;20002;-82
2022/06/23 05:35:37;;;;;;;;;;;;;;;;;;;;;
2022/06/23 05:38:44;;;;;;;11.38;7.18;;;14.60;99.90;;;;;;6060954;23;20494;-80
2022/06/23 05:41:32;;;;;;;13.63;8.00;;;14.60;99.90;;;;;;6136238;23;20396;-82
2022/06/23 05:43:58;;;;;;;17.80;8.38;;;14.70;99.90;;;;;;6189014;23;20493;-83
2022/06/23 05:46:28;;;;;;;17.08;8.35;;;14.80;99.90;;;;;;6163753;23;20018;-81
2022/06/23 05:48:58;;;;;;;15.75;8.23;;;14.80;99.90;;;;;;6164258;23;20016;-81
2022/06/23 05:51:38;;;;;;;11.48;7.63;;;14.90;99.90;;;;;;6277175;22;20011;-81
2022/06/23 05:54:28;;;;;;;14.63;8.23;;;15.00;99.90;;;;;;6312449;22;20255;-81
2022/06/23 05:57:32;;;;;;;11.15;7.30;;;15.10;99.90;;;;;;6286515;22;20069;-82
2022/06/23 06:00:01;;;;;;;12.27;7.55;;;15.20;99.90;;;;;;6286335;22;20011;-82
2022/06/23 06:02:34;;;;;;;16.30;8.10;;;15.30;99.90;;;;;;6311699;22;20472;-81
2022/06/23 06:05:01;;;;;;;12.73;7.93;;;15.30;99.90;;;;;;6340237;22;20006;-81
2022/06/23 06:07:34;;;;;;;12.88;7.93;;;15.40;99.90;;;;;;6286206;22;20010;-82
2022/06/23 06:10:04;;;;;;;13.00;8.15;;;15.40;99.90;;;;;;6286797;22;20014;-81
2022/06/23 06:12:38;;;;;;;13.70;7.63;;;15.50;99.90;;;;;;6312438;22;20011;-82
2022/06/23 06:15:16;;;;;;;14.07;8.25;;;15.60;99.90;;;;;;6286281;22;20053;-82
2022/06/23 06:17:43;;;;;;;15.98;7.68;;;15.70;99.90;;;;;;6286517;22;20049;-81
2022/06/23 06:20:10;;;;;;;15.35;7.97;;;15.80;99.90;;;;;;6285781;22;20060;-80
2022/06/23 06:22:58;;;;;;;12.95;8.40;;;15.90;99.90;;;;;;6286023;22;20011;-80
2022/06/23 06:25:34;;;;;;;11.10;8.32;;;16.00;99.90;;;;;;6288698;22;20063;-80
2022/06/23 06:28:17;;;;;;;12.57;7.90;;;16.10;99.90;;;;;;6287706;22;20018;-80
2022/06/23 06:30:54;;;;;;;10.93;7.43;;;16.20;99.90;;;;;;6287738;22;20026;-81
2022/06/23 06:33:34;;;;;;;14.60;8.20;;;16.20;99.90;;;;;;6314216;22;20111;-81
2022/06/23 06:36:00;;;;;;;14.25;8.10;;;16.30;99.90;;;;;;6288326;22;20050;-80
2022/06/23 06:38:29;;;;;;;12.95;8.25;;;16.40;99.90;;;;;;6287502;22;20015;-80
2022/06/23 06:40:57;;;;;;;13.60;8.02;;;16.40;99.90;;;;;;6288076;22;20011;-81
2022/06/23 06:43:29;;;;;;;11.27;7.15;;;16.40;99.90;;;;;;6288341;22;20466;-81
2022/06/23 06:45:57;;;;;;;14.68;7.93;;;16.50;99.90;;;;;;6288107;22;20011;-80
2022/06/23 06:48:30;;;;;;;11.95;7.53;;;16.50;99.90;;;;;;6287777;22;20007;-81
2022/06/23 06:51:06;;;;;;;10.30;7.00;;;16.60;99.90;;;;;;6287470;22;20011;-80
2022/06/23 06:53:41;;;;;;;8.80;6.45;;;16.60;99.90;;;;;;6258197;22;20034;-81
2022/06/23 06:56:17;;;;;;;9.82;6.32;;;16.70;99.90;;;;;;6256787;22;20019;-80
2022/06/23 06:59:19;;;;;;;9.75;6.18;;;16.70;99.90;;;;;;6256674;22;20038;-79
2022/06/23 07:01:53;;;;;;;11.55;5.82;;;16.70;99.90;;;;;;6206119;22;20096;-80
2022/06/23 07:04:29;;;;;;;7.22;5.50;;;16.90;99.90;;;;;;6257407;22;20041;-80
2022/06/23 07:07:01;;;;;;;10.77;6.05;;;16.90;99.90;;;;;;6282986;22;20441;-80
2022/06/23 07:09:34;;;;;;;8.10;5.32;;;17.00;99.90;;;;;;6256951;22;20011;-80
2022/06/23 07:12:15;;;;;;;9.18;5.47;;;17.10;99.90;;;;;;6257311;22;20011;-81
2022/06/23 07:15:19;;;;;;;9.02;4.57;;;17.20;99.90;;;;;;6258095;22;20090;-82
2022/06/23 07:17:53;;;;;;;14.63;5.82;;;17.40;99.90;;;;;;6253679;22;20037;-80
2022/06/23 07:20:42;;;;;;;10.30;5.07;;;17.50;99.90;;;;;;6256622;22;20042;-81
2022/06/23 07:23:21;;;;;;;7.60;4.88;;;17.60;99.90;;;;;;6257072;22;20007;-80
2022/06/23 07:25:57;;;;;;;8.38;5.10;;;17.70;99.90;;;;;;6256955;22;20042;-80
2022/06/23 07:28:38;;;;;;;6.18;4.20;;;17.80;99.90;;;;;;6256309;22;20014;-80
2022/06/23 07:38:13;;;;;;;9.30;4.05;;;18.20;99.90;;;;;;6214497;23;20051;-80
2022/06/23 07:40:57;;;;;;;6.50;4.13;;;18.40;99.90;;;;;;6200532;23;20105;-80
2022/06/23 07:43:36;;;;;;;8.50;4.03;;;18.60;99.90;;;;;;6245339;23;20043;-81
2022/06/23 07:46:05;;;;;;;49.65;5.72;;;18.70;99.90;;;;;;6245872;23;20545;-81
2022/06/23 07:48:48;;;;;;;;;;;;;;;;;;;;;
2022/06/23 07:51:15;;;;;;;5.32;3.20;;;19.00;99.90;;;;;;6220574;23;20046;-77
2022/06/23 07:53:44;;;;;;;5.45;3.25;;;19.10;99.90;;;;;;6222282;23;20099;-79
2022/06/23 07:56:17;;;;;;;8.40;3.63;;;19.20;99.90;;;;;;6220128;23;20087;-80
2022/06/23 07:58:46;;;;;;;5.97;3.40;;;19.40;99.90;;;;;;6195074;23;20047;-80
2022/06/23 08:01:22;;;;;;;7.93;3.67;;;19.60;99.90;;;;;;6219124;23;20020;-79
2022/06/23 08:04:13;;;;;;;5.43;3.35;;;19.70;99.90;;;;;;6236395;22;20483;-79
2022/06/23 08:06:50;;;;;;;;;;;;;;;;;;;;;
2022/06/23 08:09:23;;;;;;;7.75;3.05;;;19.90;99.90;;;;;;6281298;22;20015;-81
2022/06/23 08:16:49;;;;;;;5.05;2.80;;;20.10;99.90;;;;;;6282126;22;20109;-81
2022/06/23 08:17:41;;;;;;;6.75;2.90;;;20.30;99.90;;;;;;6281008;22;20047;-81
2022/06/23 08:20:11;;;;;;;4.75;3.22;;;20.40;99.90;;;;;;6281522;22;20058;-81
2022/06/23 08:22:39;;;;;;;7.13;3.20;;;20.50;99.90;;;;;;6255078;22;20050;-80
2022/06/23 08:25:06;;;;;;;5.13;2.90;;;20.70;99.90;;;;;;6308746;22;20039;-81
2022/06/23 08:27:33;;;;;;;6.28;3.00;;;20.80;99.90;;;;;;6256518;22;20432;-81
2022/06/23 08:30:08;;;;;;;7.13;3.35;;;20.90;99.90;;;;;;6281869;22;20018;-80
2022/06/23 08:32:38;;;;;;;6.93;3.10;;;21.10;99.90;;;;;;6255443;22;20011;-81
2022/06/23 08:35:25;;;;;;;5.57;2.90;;;21.20;99.90;;;;;;6255826;22;20021;-81
2022/06/23 08:38:01;;;;;;;6.03;2.63;;;21.50;99.90;;;;;;6282282;22;20022;-81
2022/06/23 08:40:51;;;;;;;5.25;2.80;;;21.60;99.90;;;;;;6257107;22;20019;-80
2022/06/23 08:43:54;;;;;;;8.30;3.00;;;21.70;99.90;;;;;;6281505;22;20064;-82
2022/06/23 08:46:28;;;;;;;4.82;2.72;;;21.90;99.90;;;;;;6281032;22;20011;-82
2022/06/23 08:49:08;;;;;;;4.45;2.63;;;22.10;99.90;;;;;;6309164;22;20007;-82
2022/06/23 08:52:05;;;;;;;6.22;3.10;;;22.30;99.90;;;;;;6309039;22;20053;-80
2022/06/23 08:55:00;;;;;;;10.82;3.58;;;22.50;99.90;;;;;;6256960;22;20015;-80
2022/06/23 08:57:34;;;;;;;5.33;2.53;;;22.70;99.90;;;;;;6256507;22;20025;-81
2022/06/23 09:00:17;;;;;;;5.72;3.42;;;22.90;99.90;;;;;;6281972;22;20015;-82
2022/06/23 09:02:54;;;;;;;5.90;3.05;;;23.00;99.90;;;;;;6256551;22;20026;-80
2022/06/23 09:05:28;;;;;;;4.22;2.83;;;23.20;99.90;;;;;;6281552;22;20007;-80
2022/06/23 09:08:08;;;;;;;5.47;2.70;;;23.40;99.90;;;;;;6308775;22;20106;-81
2022/06/23 09:10:50;;;;;;;4.40;2.60;;;23.50;99.90;;;;;;6256401;22;20141;-81
2022/06/23 09:13:28;;;;;;;6.90;2.95;;;23.70;99.90;;;;;;6281372;22;20019;-81
2022/06/23 09:16:26;;;;;;;6.05;2.80;;;23.80;99.90;;;;;;6281979;22;20045;-82
2022/06/23 09:19:00;;;;;;;6.85;2.97;;;24.00;99.90;;;;;;6281309;22;20094;-82
2022/06/23 09:21:31;;;;;;;10.40;3.53;;;24.10;99.90;;;;;;6255615;22;20015;-81
2022/06/23 09:24:08;;;;;;;5.90;2.90;;;24.20;99.90;;;;;;6281044;22;20015;-81
2022/06/23 09:26:36;;;;;;;5.38;2.60;;;24.30;99.90;;;;;;6309566;22;20075;-82
2022/06/23 09:29:19;;;;;;;5.07;2.75;;;24.40;99.90;;;;;;6308818;22;20081;-81
2022/06/23 09:31:56;;;;;;;6.20;3.00;;;24.60;99.90;;;;;;6281394;22;20057;-80
2022/06/23 09:34:33;;;;;;;6.30;3.00;;;24.70;99.90;;;;;;6299739;22;20343;-82
2022/06/23 09:37:21;;;;;;;4.55;2.72;;;24.70;99.90;;;;;;6282041;22;20050;-82
2022/06/23 09:40:20;;;;;;;4.95;2.50;;;24.90;99.90;;;;;;6307144;22;20162;-83
2022/06/23 09:43:22;;;;;;;4.05;2.78;;;25.10;99.90;;;;;;6308634;22;20389;-81
2022/06/23 09:46:21;;;;;;;9.20;2.97;;;25.30;99.90;;;;;;6308886;22;20007;-82
2022/06/23 09:49:02;;;;;;;9.25;3.30;;;25.40;99.90;;;;;;6308332;22;20437;-80
2022/06/23 09:51:46;;;;;;;6.53;3.00;;;25.50;99.90;;;;;;6308878;22;20011;-83
2022/06/23 09:54:29;;;;;;;6.10;3.00;;;25.70;99.90;;;;;;6307155;22;20445;-81
2022/06/23 09:57:04;;;;;;;5.88;3.67;;;25.70;99.90;;;;;;6307999;22;20441;-80
2022/06/23 09:59:39;;;;;;;4.53;3.20;;;25.80;99.90;;;;;;6310290;22;20018;-79
2022/06/23 10:02:05;;;;;;;8.35;3.20;;;26.00;99.90;;;;;;6310678;22;20011;-81
2022/06/23 10:04:55;;;;;;;5.32;3.00;;;26.10;99.90;;;;;;6310441;22;20014;-81
2022/06/23 10:07:29;;;;;;;6.75;3.45;;;26.30;99.90;;;;;;6311043;22;20330;-83
2022/06/23 10:10:11;;;;;;;6.80;2.90;;;26.30;99.90;;;;;;6309019;22;20067;-83
2022/06/23 10:13:09;;;;;;;4.88;2.83;;;26.40;99.90;;;;;;6311154;22;20088;-82
2022/06/23 10:15:57;;;;;;;5.95;2.85;;;26.60;99.90;;;;;;6310822;22;20379;-81
2022/06/23 10:18:34;;;;;;;8.95;2.88;;;26.80;99.90;;;;;;6310381;22;20054;-81
2022/06/23 10:21:18;;;;;;;6.22;3.50;;;26.80;99.90;;;;;;6311130;22;20022;-81
2022/06/23 10:24:08;;;;;;;5.03;2.83;;;26.90;99.90;;;;;;6310767;22;20077;-81
2022/06/23 10:27:09;;;;;;;8.57;2.88;;;27.00;99.90;;;;;;6308873;22;20050;-81
2022/06/23 10:30:09;;;;;;;7.32;2.63;;;27.10;99.90;;;;;;6309138;22;20042;-82
2022/06/23 10:33:04;;;;;;;7.53;3.05;;;27.20;99.90;;;;;;6271329;22;20500;-82
2022/06/23 10:36:07;;;;;;;7.17;3.60;;;27.30;99.90;;;;;;6310397;22;20007;-84
2022/06/23 10:38:48;;;;;;;6.30;3.00;;;27.40;99.90;;;;;;6283142;22;20268;-82
2022/06/23 10:41:23;;;;;;;8.60;3.15;;;27.40;99.90;;;;;;6282987;22;20019;-80
2022/06/23 10:44:17;;;;;;;5.30;2.83;;;27.50;99.90;;;;;;6257492;22;20022;-82
2022/06/23 10:46:54;;;;;;;6.90;2.80;;;27.60;99.90;;;;;;6257579;22;20086;-82
2022/06/23 10:49:38;;;;;;;5.97;3.35;;;27.80;99.90;;;;;;6282959;22;20043;-82
2022/06/23 10:52:34;;;;;;;6.57;2.80;;;27.80;99.90;;;;;;6310505;22;20037;-82
2022/06/23 10:55:26;;;;;;;5.88;2.90;;;27.90;99.90;;;;;;6311195;22;20033;-83
2022/06/23 10:58:21;;;;;;;7.88;2.97;;;28.00;99.90;;;;;;6282603;22;20486;-82
2022/06/23 11:01:04;;;;;;;4.35;2.75;;;28.20;99.90;;;;;;6310339;22;20011;-82
2022/06/23 11:03:44;;;;;;;5.35;2.97;;;28.30;99.90;;;;;;6282565;22;20374;-82
2022/06/23 11:06:30;;;;;;;8.18;3.33;;;28.40;99.90;;;;;;6310385;22;20077;-82
2022/06/23 11:09:22;;;;;;;6.55;2.95;;;28.50;99.90;;;;;;6282013;22;20018;-79
2022/06/23 11:12:31;;;;;;;5.57;2.80;;;28.50;99.90;;;;;;6308885;22;20034;-81
2022/06/23 11:15:08;;;;;;;7.47;2.97;;;28.50;99.90;;;;;;6310584;22;20082;-82
2022/06/23 11:17:42;;;;;;;5.45;3.05;;;28.60;99.90;;;;;;6310695;22;20015;-83
2022/06/23 11:20:35;;;;;;;5.38;2.80;;;28.70;99.90;;;;;;6310683;22;20318;-81
2022/06/23 11:23:16;;;;;;;8.05;3.38;;;28.90;99.90;;;;;;6309890;22;20012;-83
2022/06/23 11:25:57;;;;;;;7.07;2.83;;;28.90;99.90;;;;;;6310184;22;20004;-80
2022/06/23 11:28:25;;;;;;;4.30;2.72;;;28.90;99.90;;;;;;6310171;22;20056;-83
2022/06/23 11:31:11;;;;;;;7.07;2.80;;;28.90;98.90;;;;;;6310245;22;20011;-79
2022/06/23 11:33:46;;;;;;;5.60;2.58;;;28.90;98.90;;;;;;6291617;22;20019;-84
2022/06/23 11:36:35;;;;;;;4.15;3.00;;;28.90;99.80;;;;;;6310411;22;20019;-85
2022/06/23 11:39:32;;;;;;;6.15;3.00;;;29.00;96.70;;;;;;6308196;22;20445;-82
2022/06/23 11:42:45;;;;;;;6.03;2.90;;;29.00;99.90;;;;;;6308191;22;20015;-83
2022/06/23 11:45:30;;;;;;;4.80;2.90;;;29.20;99.90;;;;;;6308019;22;20011;-83
2022/06/23 11:48:31;;;;;;;10.20;3.30;;;29.30;97.60;;;;;;6308371;22;20007;-82
2022/06/23 11:51:14;;;;;;;5.68;2.80;;;29.30;97.90;;;;;;6309720;22;20038;-83
2022/06/23 11:53:51;;;;;;;6.05;2.50;;;29.50;98.90;;;;;;6311049;22;20009;-81
2022/06/23 11:56:41;;;;;;;6.53;2.75;;;29.60;98.20;;;;;;6309988;22;20030;-84
2022/06/23 11:59:16;;;;;;;4.97;2.83;;;29.80;97.10;;;;;;6310009;22;20119;-80
2022/06/23 12:01:42;;;;;;;7.57;2.70;;;29.80;96.50;;;;;;6308065;22;20018;-82
2022/06/23 12:04:27;;;;;;;6.68;2.65;;;29.90;95.80;;;;;;6307637;22;20019;-85
2022/06/23 12:07:17;;;;;;;4.28;2.10;;;29.90;92.30;;;;;;6309955;22;20014;-82
2022/06/23 12:10:02;;;;;;;6.32;2.47;;;29.90;91.50;;;;;;6309990;22;20008;-82
2022/06/23 12:12:31;;;;;;;5.37;2.40;;;29.90;84.30;;;;;;6307998;22;20079;-81
2022/06/23 12:14:57;;;;;;;4.72;2.55;;;29.90;90.20;;;;;;6309456;22;20019;-83
2022/06/23 12:17:45;;;;;;;5.50;2.67;;;30.00;89.70;;;;;;6309600;22;20004;-83
2022/06/23 12:20:27;;;;;;;4.78;2.35;;;30.10;82.90;;;;;;6309942;22;20359;-82
2022/06/23 12:23:21;;;;;;;5.78;3.20;;;30.10;84.50;;;;;;6310198;22;20046;-82
2022/06/23 12:26:26;;;;;;;7.38;2.40;;;30.10;77.80;;;;;;6310479;22;20355;-79
2022/06/23 12:29:19;;;;;;;4.90;2.50;;;30.10;77.20;;;;;;6307215;22;20011;-83
2022/06/23 12:32:05;;;;;;;6.32;2.42;;;30.10;78.50;;;;;;6310077;22;20061;-83
2022/06/23 12:34:35;;;;;;;7.40;2.22;;;30.20;86.30;;;;;;6308070;22;20054;-83
2022/06/23 12:37:30;;;;;;;5.53;2.20;;;30.20;79.60;;;;;;6307763;22;20019;-82
2022/06/23 12:40:05;;;;;;;4.20;2.28;;;30.30;76.30;;;;;;6309571;22;20021;-82
2022/06/23 12:42:40;;;;;;;6.78;2.47;;;30.30;75.90;;;;;;6309580;22;20020;-81
2022/06/23 12:45:24;;;;;;;5.00;2.30;;;30.30;78.30;;;;;;6309767;22;20011;-82
2022/06/23 12:48:27;;;;;;;6.53;2.53;;;30.40;75.40;;;;;;6307738;22;20506;-83
2022/06/23 12:51:04;;;;;;;5.80;2.50;;;30.50;76.70;;;;;;6308031;22;20046;-82
2022/06/23 12:53:39;;;;;;;4.18;2.38;;;30.50;77.40;;;;;;6308099;22;20054;-84
2022/06/23 12:56:28;;;;;;;;;;;30.50;75.10;;;;;;6309978;22;20011;-83
2022/06/23 12:59:03;;;;;;;5.82;1.95;;;30.60;70.70;;;;;;6309768;22;19994;-83
2022/06/23 13:01:38;;;;;;;3.83;2.28;;;30.70;70.90;;;;;;6309063;22;20441;-82
2022/06/23 13:04:48;;;;;;;3.88;2.00;;;30.70;73.80;;;;;;6307664;22;20086;-83
2022/06/23 13:07:26;;;;;;;6.18;2.65;;;30.70;68.10;;;;;;6260299;22;20011;-83
2022/06/23 13:10:14;;;;;;;3.67;2.20;;;30.80;67.30;;;;;;6309069;22;20062;-82
2022/06/23 13:12:59;;;;;;;4.85;2.33;;;30.70;65.60;;;;;;6309148;22;20121;-82
2022/06/23 13:15:44;;;;;;;5.68;1.80;;;30.80;66.40;;;;;;6309653;22;20008;-84
2022/06/23 13:18:13;;;;;;;;;;;30.80;64.60;;;;;;6308084;22;20011;-84
2022/06/23 13:20:54;;;;;;;5.20;2.10;;;30.80;68.00;;;;;;6308669;22;20317;-83
2022/06/23 13:23:37;;;;;;;4.72;2.45;;;30.90;66.40;;;;;;6309259;22;20336;-83
2022/06/23 13:26:15;;;;;;;4.40;1.90;;;31.00;67.30;;;;;;6309034;22;20450;-83
2022/06/23 13:28:44;;;;;;;6.38;2.17;;;31.00;66.60;;;;;;6309265;22;20446;-83
2022/06/23 13:31:27;;;;;;;4.72;2.17;;;30.90;64.60;;;;;;6309221;22;20011;-84
2022/06/23 13:34:07;;;;;;;4.10;2.45;;;30.90;61.20;;;;;;6307878;22;20498;-82
2022/06/23 13:36:41;;;;;;;6.43;2.13;;;31.00;62.70;;;;;;6308963;22;20015;-84
2022/06/23 13:39:28;;;;;;;3.28;2.10;;;31.00;63.60;;;;;;6307595;22;20026;-82
2022/06/23 13:42:13;;;;;;;7.03;2.30;;;31.10;63.40;;;;;;6306756;22;20047;-84
2022/06/23 13:44:56;;;;;;;4.10;2.42;;;31.10;63.60;;;;;;6307373;22;20007;-81
2022/06/23 13:47:56;;;;;;;5.03;2.33;;;31.10;61.60;;;;;;6309545;22;20046;-83
2022/06/23 13:50:46;;;;;;;5.10;2.78;;;31.20;59.80;;;;;;6277922;22;20015;-83
2022/06/23 13:53:34;;;;;;;3.75;2.47;;;31.00;59.10;;;;;;6307490;22;20026;-83
2022/06/23 13:56:11;;;;;;;4.85;2.33;;;31.10;62.30;;;;;;6307344;22;20019;-82
2022/06/23 13:58:44;;;;;;;7.97;2.80;;;31.30;63.30;;;;;;6308965;22;20015;-83
2022/06/23 14:01:39;;;;;;;3.20;2.40;;;31.20;62.40;;;;;;6308952;22;20480;-82
2022/06/23 14:04:31;;;;;;;5.28;2.38;;;31.20;60.10;;;;;;6307904;22;20011;-83
2022/06/23 14:07:13;;;;;;;6.85;2.70;;;31.20;61.30;;;;;;6309012;22;20015;-83
2022/06/23 14:09:42;;;;;;;7.32;3.20;;;31.30;60.60;;;;;;6309432;22;20007;-82
2022/06/23 14:12:18;;;;;;;6.80;2.72;;;31.40;61.00;;;;;;6307252;22;20014;-83
2022/06/23 14:15:26;;;;;;;5.30;2.95;;;31.40;61.50;;;;;;6307496;22;20361;-83
2022/06/23 14:18:04;;;;;;;4.90;2.50;;;31.40;61.30;;;;;;6305954;22;20374;-81
2022/06/23 14:20:54;;;;;;;6.47;3.00;;;31.40;61.90;;;;;;6308647;22;20389;-81
2022/06/23 14:23:41;;;;;;;7.68;2.92;;;31.30;60.80;;;;;;6307246;22;20079;-82
2022/06/23 14:26:11;;;;;;;6.15;2.70;;;31.40;62.40;;;;;;6281673;22;20018;-82
2022/06/23 14:29:12;;;;;;;7.68;3.05;;;31.40;61.80;;;;;;6307121;22;20380;-83
2022/06/23 14:31:51;;;;;;;8.82;3.67;;;31.40;61.90;;;;;;6305827;22;20085;-83
2022/06/23 14:34:24;;;;;;;5.55;3.00;;;31.40;62.50;;;;;;6308424;22;20088;-84
2022/06/23 14:37:20;;;;;;;5.93;3.25;;;31.40;61.30;;;;;;6281555;22;20025;-83
2022/06/23 14:39:48;;;;;;;8.18;3.15;;;31.30;61.50;;;;;;6276371;22;20015;-84
2022/06/23 14:42:32;;;;;;;4.57;2.88;;;31.30;62.00;;;;;;6308593;22;20008;-83
2022/06/23 14:45:10;;;;;;;6.17;2.90;;;31.40;61.40;;;;;;6281872;22;20015;-81
2022/06/23 14:48:17;;;;;;;6.70;3.47;;;31.40;63.30;;;;;;6309858;22;20011;-84
2022/06/23 14:50:48;;;;;;;6.07;3.00;;;31.40;65.00;;;;;;6283377;22;20050;-82
2022/06/23 14:53:34;;;;;;;6.93;3.05;;;31.50;65.30;;;;;;6282684;22;20086;-84
2022/06/23 14:56:42;;;;;;;6.50;3.00;;;31.50;66.20;;;;;;6309964;22;20011;-84
2022/06/23 14:59:28;;;;;;;6.10;3.20;;;31.60;64.70;;;;;;6309811;22;20084;-83
2022/06/23 15:02:15;;;;;;;8.25;3.53;;;31.60;62.30;;;;;;6309357;22;20359;-83
2022/06/23 15:04:54;;;;;;;5.40;3.40;;;31.50;62.90;;;;;;6310058;22;20012;-83
2022/06/23 15:07:24;;;;;;;5.65;3.25;;;31.40;61.50;;;;;;6283500;22;20029;-84
2022/06/23 15:10:25;;;;;;;7.15;3.30;;;31.40;62.30;;;;;;6310998;22;20011;-85
2022/06/23 15:13:13;;;;;;;6.47;4.03;;;31.40;63.40;;;;;;6310574;22;20061;-86
2022/06/23 15:15:45;;;;;;;5.97;3.13;;;31.40;65.30;;;;;;6256969;22;20015;-84
2022/06/23 15:18:29;;;;;;;6.80;3.58;;;31.40;63.60;;;;;;6281972;22;20333;-84
2022/06/23 15:24:28;;;;;;;5.53;3.25;;;31.50;63.50;;;;;;6282696;22;20015;-84
2022/06/23 15:27:27;;;;;;;6.05;3.22;;;31.50;65.10;;;;;;6282346;22;20503;-85
2022/06/23 15:29:56;;;;;;;5.70;3.45;;;31.50;66.20;;;;;;6282444;22;20012;-84
2022/06/23 15:32:40;;;;;;;5.38;3.60;;;31.60;65.00;;;;;;6283078;22;20012;-86
2022/06/23 15:35:23;;;;;;;5.82;4.05;;;31.60;65.30;;;;;;6257022;22;20397;-84
2022/06/23 15:38:26;;;;;;;6.80;3.65;;;31.70;67.50;;;;;;6309892;22;20014;-82
2022/06/23 15:41:08;;;;;;;7.10;3.85;;;31.70;65.30;;;;;;6310181;22;20371;-84
2022/06/23 15:43:48;;;;;;;9.82;3.38;;;31.60;65.10;;;;;;6309977;22;20007;-84
2022/06/23 15:46:25;;;;;;;4.50;3.47;;;31.60;65.60;;;;;;6282845;22;20015;-84
2022/06/23 15:49:23;;;;;;;7.30;4.15;;;31.50;64.00;;;;;;6310385;22;20326;-85
2022/06/23 15:52:12;;;;;;;5.97;3.25;;;31.60;66.30;;;;;;6302200;22;20019;-83
2022/06/23 15:54:40;;;;;;;7.22;3.65;;;31.70;65.10;;;;;;6256990;22;20441;-81
2022/06/23 15:57:16;;;;;;;4.93;3.72;;;31.70;65.90;;;;;;6282032;22;20015;-83
2022/06/23 15:59:56;;;;;;;5.70;4.03;;;31.60;63.90;;;;;;6308488;22;20422;-82
2022/06/23 16:02:34;;;;;;;6.50;3.70;;;31.50;62.40;;;;;;6282157;22;20003;-82
2022/06/23 16:05:08;;;;;;;9.50;3.97;;;31.50;63.20;;;;;;6309892;22;20375;-82
2022/06/23 16:07:36;;;;;;;12.63;6.82;;;31.50;62.70;;;;;;6310528;22;20047;-81
2022/06/23 16:10:24;;;;;;;7.72;4.63;;;31.50;63.70;;;;;;6282077;22;20011;-80
2022/06/23 16:12:50;;;;;;;7.05;3.63;;;31.50;63.10;;;;;;6282699;22;20015;-83
2022/06/23 16:15:34;;;;;;;7.03;4.65;;;31.50;64.40;;;;;;6310254;22;20078;-83
2022/06/23 16:18:05;;;;;;;6.53;3.88;;;31.50;66.40;;;;;;6282177;22;20022;-85
2022/06/23 16:20:54;;;;;;;8.82;3.92;;;31.50;65.50;;;;;;6282618;22;20488;-83
2022/06/23 16:23:39;;;;;;;8.63;4.22;;;31.50;61.30;;;;;;6309881;22;20014;-82
2022/06/23 16:26:17;;;;;;;7.80;3.90;;;31.40;63.50;;;;;;6310255;22;20310;-83
2022/06/23 16:28:52;;;;;;;6.93;4.03;;;31.40;64.30;;;;;;6309865;22;20018;-82
2022/06/23 16:31:31;;;;;;;7.47;4.40;;;31.30;64.70;;;;;;6281817;22;20530;-82
2022/06/23 16:34:18;;;;;;;7.63;3.83;;;31.30;64.60;;;;;;6309583;22;20015;-84
2022/06/23 16:37:15;;;;;;;7.03;4.10;;;31.30;65.50;;;;;;6282472;22;20117;-84
2022/06/23 16:40:02;;;;;;;5.47;3.90;;;31.30;66.50;;;;;;6255805;22;20341;-81
2022/06/23 16:42:34;;;;;;;7.05;4.05;;;31.30;65.00;;;;;;6281508;22;20071;-83
2022/06/23 16:45:18;;;;;;;7.32;3.50;;;31.20;64.80;;;;;;6281875;22;20061;-84
2022/06/23 16:47:48;;;;;;;6.32;3.92;;;31.20;66.70;;;;;;6281627;22;20069;-83
2022/06/23 16:50:31;;;;;;;6.65;3.78;;;31.20;65.50;;;;;;6281383;22;20444;-83
2022/06/23 16:53:16;;;;;;;7.45;4.07;;;31.10;63.30;;;;;;6281588;22;20046;-84
2022/06/23 16:55:42;;;;;;;;;;;31.00;64.40;;;;;;6309865;22;20015;-84
2022/06/23 16:58:30;;;;;;;9.30;4.20;;;31.00;68.30;;;;;;6308944;22;19921;-83
2022/06/23 17:01:25;;;;;;;7.90;3.92;;;31.00;66.40;;;;;;6256966;22;20091;-83
2022/06/23 17:04:10;;;;;;;5.45;3.75;;;31.00;67.50;;;;;;6281795;22;20057;-84
2022/06/23 17:06:47;;;;;;;6.75;4.25;;;31.00;66.90;;;;;;6255406;22;20022;-82
2022/06/23 17:09:39;;;;;;;8.05;4.13;;;31.00;66.30;;;;;;6307608;22;20030;-83
2022/06/23 17:12:08;;;;;;;8.07;3.90;;;30.90;67.10;;;;;;6282324;22;20012;-83
2022/06/23 17:14:40;;;;;;;10.77;5.30;;;30.90;67.30;;;;;;6309286;22;20046;-84
2022/06/23 17:17:13;;;;;;;6.38;3.60;;;30.80;69.20;;;;;;6309807;22;20030;-85
2022/06/23 17:19:43;;;;;;;8.27;3.50;;;30.80;70.40;;;;;;6282659;22;20503;-84
2022/06/23 17:22:25;;;;;;;5.47;3.30;;;30.70;68.40;;;;;;6282875;22;20476;-81
2022/06/23 17:24:54;;;;;;;7.70;3.50;;;30.70;68.80;;;;;;6283997;22;20437;-83
2022/06/23 17:27:34;;;;;;;5.80;3.60;;;30.60;69.80;;;;;;6284439;22;20386;-82
2022/06/23 17:30:29;;;;;;;5.93;3.88;;;30.60;70.70;;;;;;6284478;22;20055;-82
2022/06/23 17:33:04;;;;;;;7.93;3.58;;;30.40;70.20;;;;;;6322599;22;20038;-80
2022/06/23 17:35:39;;;;;;;6.40;3.60;;;30.30;71.60;;;;;;6325864;22;20011;-80
2022/06/23 17:44:17;;;;;;;7.00;3.45;;;30.00;73.50;;;;;;6284257;22;20011;-82
2022/06/23 17:46:53;;;;;;;6.20;3.40;;;29.90;73.70;;;;;;6285141;22;20372;-83
2022/06/23 17:49:29;;;;;;;5.72;3.30;;;29.90;73.80;;;;;;6310182;22;20018;-82